Sunday, December 17, 2017, 10:09 PM EST
Back to Local

KOWD, Norwood Memorial Airport

Location: Norwood, MA, United States Lat: 42.183
Local Time: 10:09 PM EST ( 3:09 GMT) Lon: -71.167
Time Zone: US/Eastern Elev: 49 ft

Show me the last for .
Show Decoded

2017-12-17 21:53 METAR KOWD 180253Z AUTO 00000KT 10SM CLR M05/M09 A3027 RMK AO2 SLP251 T10501094
                 50001 =
2017-12-17 20:53 METAR KOWD 180153Z AUTO 00000KT 10SM CLR M04/M11 A3028 RMK AO2 SLP255 T10391111
                 =
2017-12-17 19:53 METAR KOWD 180053Z 00000KT 10SM CLR M05/M11 A3028 RMK AO2 SLP256 T10501106 =
2017-12-17 18:53 METAR KOWD 172353Z 00000KT 10SM CLR M05/M11 A3027 RMK AO2 SLP251 T10501106 11006
                 21061 53009 =
2017-12-17 17:53 METAR KOWD 172253Z 00000KT 10SM CLR M06/M11 A3025 RMK AO2 SLP245 T10561111 =
2017-12-17 16:53 METAR KOWD 172153Z 28003KT 10SM CLR M03/M14 A3026 RMK AO2 SLP247 T10331144 =
2017-12-17 15:53 METAR KOWD 172053Z 31003KT 10SM CLR M02/M15 A3024 RMK AO2 SLP242 T10171150 53005
                 =
2017-12-17 14:53 METAR KOWD 171953Z 29007KT 10SM CLR M01/M16 A3022 RMK AO2 SLP234 T10111156 =
2017-12-17 13:53 METAR KOWD 171853Z 27007KT 10SM CLR M01/M16 A3022 RMK AO2 SLP234 T10111156 =
2017-12-17 12:53 METAR KOWD 171753Z 31007KT 10SM CLR M01/M16 A3023 RMK AO2 SLP237 T10061156 11006
                 21117 58018 =
2017-12-17 11:53 METAR KOWD 171653Z 30009KT 10SM CLR M02/M16 A3025 RMK AO2 SLP245 T10171161 =
2017-12-17 10:53 METAR KOWD 171553Z 32008G17KT 10SM CLR M03/M15 A3027 RMK AO2 SLP250 T10281150 =
2017-12-17 09:53 METAR KOWD 171453Z 31009KT 10SM CLR M04/M14 A3028 RMK AO2 SLP255 T10391139 50005
                 =
2017-12-17 08:53 METAR KOWD 171353Z 00000KT 10SM CLR M06/M11 A3028 RMK AO2 SLP256 T10561111 =
2017-12-17 07:53 METAR KOWD 171253Z 00000KT 10SM CLR M11/M12 A3028 RMK AO2 SLP254 T11061122 =
2017-12-17 06:53 METAR KOWD 171153Z 19003KT 10SM BKN120 M11/M14 A3027 RMK AO2 SLP250 I6001
                 T11111139 11089 21133 51015 =
2017-12-17 05:53 METAR KOWD 171053Z AUTO 17004KT 10SM CLR M12/M14 A3027 RMK AO2 SLP249 T11221144
                 =
2017-12-17 04:53 METAR KOWD 170953Z AUTO 17003KT 10SM CLR M12/M13 A3024 RMK AO2 SLP241 I1000
                 T11171133 =
2017-12-17 03:53 METAR KOWD 170853Z AUTO 00000KT 10SM CLR M11/M13 A3022 RMK AO2 SLP234 I1000
                 I3001 T11111133 51012 =
2017-12-17 02:53 METAR KOWD 170753Z AUTO 00000KT 10SM CLR M10/M12 A3022 RMK AO2 SLP233 T11001117
                 =
2017-12-17 01:53 METAR KOWD 170653Z AUTO 00000KT 10SM CLR M11/M13 A3020 RMK AO2 SLP228 I1001
                 T11111128 =
2017-12-17 00:53 METAR KOWD 170553Z AUTO 00000KT 10SM CLR M09/M12 A3019 RMK AO2 SLP222 T10941117
                 11017 21100 51016 =
2017-12-16 23:53 METAR KOWD 170453Z AUTO 00000KT 10SM CLR M08/M12 A3017 RMK AO2 SLP218 T10831117
                 400111089 =
2017-12-16 22:53 METAR KOWD 170353Z AUTO 27007KT 10SM CLR M04/M09 A3016 RMK AO2 SLP214 T10391094
                 =

Support USWX by starting your Amazon purchase here.